Time;durP1;ratioP1;P1;durP2;ratioP2;P2;SDS_P1;SDS_P2;PMS_P1;PMS_P2;Temp;Humidity;BMP_temperature;BMP_pressure;BME280_temperature;BME280_humidity;BME280_pressure;Samples;Min_cycle;Max_cycle;Signal;HPM_P1;HPM_P2
2024/01/27 00:01:43;;;;;;;20.75;4.68;;;3.90;99.90;;;;;;5060259;28;20480;-76
2024/01/27 00:04:09;;;;;;;21.27;4.20;;;3.80;99.90;;;;;;5061174;28;20074;-76
2024/01/27 00:06:35;;;;;;;28.95;5.00;;;3.80;99.90;;;;;;5043792;28;20642;-76
2024/01/27 00:09:00;;;;;;;27.67;5.55;;;3.70;99.90;;;;;;5041089;28;20070;-76
2024/01/27 00:11:26;;;;;;;26.23;4.30;;;3.70;99.90;;;;;;5043174;28;20170;-76
2024/01/27 00:13:52;;;;;;;18.67;4.35;;;3.80;99.90;;;;;;5062930;28;20632;-76
2024/01/27 00:16:21;;;;;;;26.88;4.65;;;3.80;99.90;;;;;;5043531;28;20033;-76
2024/01/27 00:18:46;;;;;;;22.15;4.97;;;3.70;99.90;;;;;;5043280;28;20036;-76
2024/01/27 00:21:12;;;;;;;29.77;5.28;;;3.70;99.90;;;;;;5061193;28;20097;-77
2024/01/27 00:23:38;;;;;;;26.92;4.80;;;3.70;99.90;;;;;;5044093;28;20091;-76
2024/01/27 00:26:04;;;;;;;22.23;4.90;;;3.60;99.90;;;;;;5058855;28;20049;-77
2024/01/27 00:28:32;;;;;;;20.50;4.45;;;3.70;99.90;;;;;;5060842;28;20525;-76
2024/01/27 00:30:58;;;;;;;18.60;4.38;;;3.70;99.90;;;;;;5041032;28;20101;-76
2024/01/27 00:33:24;;;;;;;26.58;4.72;;;3.70;99.90;;;;;;5042829;28;20523;-76
2024/01/27 00:35:51;;;;;;;25.23;4.78;;;3.80;99.90;;;;;;5041813;28;20041;-76
2024/01/27 00:38:17;;;;;;;20.75;4.18;;;3.90;99.90;;;;;;5057773;28;20047;-76
2024/01/27 00:40:43;;;;;;;17.33;4.65;;;3.90;99.90;;;;;;5059113;28;20045;-76
2024/01/27 00:43:08;;;;;;;27.75;4.78;;;3.80;99.90;;;;;;5029263;28;20072;-76
2024/01/27 00:45:34;;;;;;;21.85;4.65;;;3.70;99.90;;;;;;5058827;28;20059;-76
2024/01/27 00:48:00;;;;;;;21.88;4.93;;;3.70;99.90;;;;;;5043447;28;20121;-77
2024/01/27 00:50:26;;;;;;;26.15;5.05;;;3.70;99.90;;;;;;5042703;28;20469;-76
2024/01/27 00:52:51;;;;;;;22.83;4.35;;;3.60;99.90;;;;;;5057993;28;20060;-76
2024/01/27 00:55:17;;;;;;;21.45;4.72;;;3.70;99.90;;;;;;5058602;28;20039;-76
2024/01/27 00:57:43;;;;;;;22.30;4.78;;;3.70;99.90;;;;;;5041870;28;20041;-76
2024/01/27 01:00:10;;;;;;;24.75;5.38;;;3.70;99.90;;;;;;5042849;28;20037;-77
2024/01/27 01:02:36;;;;;;;26.10;5.70;;;3.70;99.90;;;;;;5058568;28;20041;-76
2024/01/27 01:05:03;;;;;;;24.23;4.68;;;3.80;99.90;;;;;;5060393;28;20036;-77
2024/01/27 01:07:30;;;;;;;20.20;4.78;;;3.80;99.90;;;;;;5042562;28;20151;-76
2024/01/27 01:09:56;;;;;;;21.25;4.45;;;3.90;99.90;;;;;;5041946;28;20272;-76
2024/01/27 01:12:22;;;;;;;21.77;4.53;;;3.80;99.90;;;;;;5055328;28;20052;-76
2024/01/27 01:14:48;;;;;;;23.25;4.45;;;3.80;99.90;;;;;;5041827;28;20055;-76
2024/01/27 01:17:14;;;;;;;20.33;4.53;;;3.80;99.90;;;;;;5058350;28;20062;-76
2024/01/27 01:19:40;;;;;;;20.77;4.82;;;3.70;99.90;;;;;;5044356;28;20040;-76
2024/01/27 01:22:07;;;;;;;18.33;4.28;;;3.80;99.90;;;;;;5058160;28;20153;-76
2024/01/27 01:24:33;;;;;;;20.90;4.38;;;3.80;99.90;;;;;;5041563;28;20396;-76
2024/01/27 01:27:02;;;;;;;25.38;4.50;;;3.70;99.90;;;;;;5058872;28;20033;-76
2024/01/27 01:29:28;;;;;;;20.88;4.55;;;3.80;99.90;;;;;;5057762;28;20048;-76
2024/01/27 01:31:54;;;;;;;18.33;4.70;;;3.80;99.90;;;;;;5039199;28;20054;-76
2024/01/27 01:34:20;;;;;;;22.67;4.65;;;3.70;99.90;;;;;;5043166;28;20511;-76
2024/01/27 01:36:45;;;;;;;21.85;4.53;;;3.70;99.90;;;;;;5055369;28;20059;-76
2024/01/27 01:39:14;;;;;;;25.77;5.00;;;3.70;99.90;;;;;;5042136;28;20047;-76
2024/01/27 01:41:43;;;;;;;26.05;4.43;;;3.60;99.90;;;;;;5041847;28;20043;-76
2024/01/27 01:44:09;;;;;;;21.13;4.28;;;3.60;99.90;;;;;;5025439;28;20469;-76
2024/01/27 01:46:34;;;;;;;26.63;4.85;;;3.60;99.90;;;;;;5041009;28;20353;-76
2024/01/27 01:49:01;;;;;;;17.50;4.38;;;3.60;99.90;;;;;;5057372;28;20040;-76
2024/01/27 01:51:30;;;;;;;20.10;4.70;;;3.70;99.90;;;;;;5042525;28;20028;-76
2024/01/27 01:53:58;;;;;;;21.83;4.43;;;3.70;99.90;;;;;;5056581;28;20131;-77
2024/01/27 01:56:24;;;;;;;20.73;4.40;;;3.70;99.90;;;;;;5043029;28;20028;-76
2024/01/27 01:58:50;;;;;;;28.83;4.97;;;3.60;99.90;;;;;;5042147;28;20071;-76
2024/01/27 02:01:18;;;;;;;22.55;5.22;;;3.50;99.90;;;;;;5040484;28;20120;-76
2024/01/27 02:03:57;;;;;;;30.13;4.80;;;3.60;99.90;;;;;;5042459;28;20464;-76
2024/01/27 02:06:23;;;;;;;26.13;4.85;;;3.40;99.90;;;;;;5041787;28;20047;-76
2024/01/27 02:08:49;;;;;;;24.60;4.43;;;3.50;99.90;;;;;;5041555;28;20071;-76
2024/01/27 02:11:15;;;;;;;20.33;4.28;;;3.40;99.90;;;;;;5042500;28;20040;-76
2024/01/27 02:13:41;;;;;;;23.58;4.03;;;3.30;99.90;;;;;;5057148;28;20275;-76
2024/01/27 02:16:07;;;;;;;23.23;4.43;;;3.20;99.90;;;;;;5056195;28;20107;-76
2024/01/27 02:18:33;;;;;;;19.02;4.20;;;3.20;99.90;;;;;;5054889;28;20102;-76
2024/01/27 02:20:58;;;;;;;23.90;4.43;;;3.10;99.90;;;;;;5039790;28;20050;-76
2024/01/27 02:23:24;;;;;;;15.75;4.30;;;3.10;99.90;;;;;;5058000;28;20055;-76
2024/01/27 02:25:50;;;;;;;20.08;4.78;;;3.10;99.90;;;;;;5056067;28;20135;-76
2024/01/27 02:28:16;;;;;;;21.92;4.50;;;3.00;99.90;;;;;;5042076;28;20340;-76
2024/01/27 02:30:43;;;;;;;25.33;4.95;;;3.10;99.90;;;;;;5055263;28;20250;-76
2024/01/27 02:33:08;;;;;;;24.20;5.10;;;3.00;99.90;;;;;;5057496;28;20120;-76
2024/01/27 02:35:34;;;;;;;22.48;4.00;;;3.10;99.90;;;;;;5058092;28;20120;-76
2024/01/27 02:38:00;;;;;;;17.23;5.05;;;3.10;99.90;;;;;;5056834;28;20033;-76
2024/01/27 02:40:26;;;;;;;24.65;4.50;;;3.10;99.90;;;;;;5040974;28;20108;-76
2024/01/27 02:42:52;;;;;;;29.48;6.05;;;3.10;99.90;;;;;;5039527;28;20048;-76
2024/01/27 02:45:25;;;;;;;17.73;4.60;;;3.00;99.90;;;;;;5042190;28;20482;-76
2024/01/27 02:47:51;;;;;;;15.90;4.13;;;3.10;99.90;;;;;;5026948;28;20044;-76
2024/01/27 02:50:17;;;;;;;19.17;4.95;;;3.10;99.90;;;;;;5057012;28;20040;-76
2024/01/27 02:52:42;;;;;;;17.05;4.05;;;3.10;99.90;;;;;;5060379;28;20530;-76
2024/01/27 02:55:08;;;;;;;26.13;4.40;;;3.10;99.90;;;;;;5041582;28;20028;-76
2024/01/27 02:57:34;;;;;;;18.45;4.82;;;3.10;99.90;;;;;;5058678;28;20124;-76
2024/01/27 02:59:59;;;;;;;24.45;4.40;;;3.20;99.90;;;;;;5058373;28;20369;-76
2024/01/27 03:02:25;;;;;;;22.27;4.88;;;3.20;99.90;;;;;;5039638;28;20052;-76
2024/01/27 03:04:53;;;;;;;21.30;4.68;;;3.10;99.90;;;;;;5057927;28;20040;-76
2024/01/27 03:07:19;;;;;;;25.88;5.20;;;3.10;99.90;;;;;;5042518;28;20223;-76
2024/01/27 03:09:45;;;;;;;18.98;4.60;;;3.20;99.90;;;;;;5059317;28;20080;-76
2024/01/27 03:12:10;;;;;;;17.98;4.00;;;3.10;99.90;;;;;;5041577;28;20051;-76
2024/01/27 03:14:36;;;;;;;25.23;4.13;;;3.00;99.90;;;;;;5046145;28;20563;-76
2024/01/27 03:17:02;;;;;;;22.17;4.35;;;3.00;99.90;;;;;;5040862;28;20029;-76
2024/01/27 03:19:28;;;;;;;24.38;4.38;;;3.00;99.90;;;;;;5041530;28;20123;-76
2024/01/27 03:21:54;;;;;;;19.58;3.95;;;3.10;99.90;;;;;;5057891;28;20123;-76
2024/01/27 03:24:19;;;;;;;24.35;4.45;;;3.00;99.90;;;;;;5041359;28;20119;-76
2024/01/27 03:26:45;;;;;;;20.98;4.30;;;3.10;99.90;;;;;;5057338;28;20440;-76
2024/01/27 03:29:11;;;;;;;21.60;4.70;;;3.10;99.90;;;;;;5043680;28;20395;-76
2024/01/27 03:31:37;;;;;;;23.63;4.72;;;3.10;99.90;;;;;;5058631;28;20143;-76
2024/01/27 03:34:03;;;;;;;22.10;4.10;;;3.00;99.90;;;;;;5061016;28;20458;-76
2024/01/27 03:36:29;;;;;;;19.05;3.92;;;3.00;99.90;;;;;;5061519;28;20044;-76
2024/01/27 03:38:56;;;;;;;19.92;3.95;;;3.00;99.90;;;;;;5061928;28;20403;-76
2024/01/27 03:41:23;;;;;;;23.88;4.25;;;2.90;99.90;;;;;;5061456;28;20063;-76
2024/01/27 03:43:48;;;;;;;22.30;4.28;;;2.90;99.90;;;;;;5044265;28;20047;-76
2024/01/27 03:46:14;;;;;;;17.88;4.35;;;3.00;99.90;;;;;;5030143;28;20033;-76
2024/01/27 03:48:40;;;;;;;20.38;3.97;;;3.00;99.90;;;;;;5042728;28;20033;-76
2024/01/27 03:51:06;;;;;;;20.60;3.92;;;3.00;99.90;;;;;;5061287;28;20161;-76
2024/01/27 03:53:31;;;;;;;18.10;4.32;;;3.00;99.90;;;;;;5044804;28;20505;-76
2024/01/27 03:56:03;;;;;;;14.93;3.85;;;3.00;99.90;;;;;;5044281;28;20683;-76
2024/01/27 03:58:29;;;;;;;19.45;4.10;;;3.00;99.90;;;;;;5060158;28;20045;-76
2024/01/27 04:00:56;;;;;;;21.80;4.68;;;3.00;99.90;;;;;;5060665;28;20346;-76
2024/01/27 04:03:22;;;;;;;14.88;4.30;;;2.90;99.90;;;;;;5043965;28;20503;-76
2024/01/27 04:05:48;;;;;;;25.00;4.05;;;3.00;99.90;;;;;;5045708;28;20371;-76
2024/01/27 04:08:14;;;;;;;22.23;4.25;;;3.00;99.90;;;;;;5044534;28;20622;-76
2024/01/27 04:10:39;;;;;;;24.27;4.25;;;2.90;99.90;;;;;;5060538;28;20084;-76
2024/01/27 04:13:05;;;;;;;21.42;4.35;;;2.80;99.90;;;;;;5062290;28;20499;-76
2024/01/27 04:15:38;;;;;;;22.35;4.20;;;2.90;99.90;;;;;;5059532;28;20037;-76
2024/01/27 04:18:05;;;;;;;24.92;4.05;;;2.90;99.90;;;;;;5061235;28;20040;-76
2024/01/27 04:20:31;;;;;;;19.52;4.32;;;3.00;99.90;;;;;;5045910;28;20114;-76
2024/01/27 04:22:57;;;;;;;18.20;4.05;;;2.90;99.90;;;;;;5061280;28;20044;-76
2024/01/27 04:25:23;;;;;;;23.95;4.95;;;2.90;99.90;;;;;;5061329;28;20230;-76
2024/01/27 04:27:49;;;;;;;23.92;4.22;;;2.90;99.90;;;;;;5061373;28;20123;-76
2024/01/27 04:30:15;;;;;;;20.50;4.65;;;3.00;99.90;;;;;;5063518;28;20589;-76
2024/01/27 04:32:40;;;;;;;16.15;3.95;;;2.90;99.90;;;;;;5059064;28;20571;-76
2024/01/27 04:35:10;;;;;;;29.00;5.05;;;3.00;99.90;;;;;;5061331;28;20115;-76
2024/01/27 04:37:36;;;;;;;21.75;4.22;;;3.00;99.90;;;;;;5059523;28;20245;-76
2024/01/27 04:40:06;;;;;;;16.88;3.85;;;3.10;99.90;;;;;;5045477;28;20204;-76
2024/01/27 04:42:34;;;;;;;24.65;4.40;;;2.90;99.90;;;;;;5057013;28;20127;-76
2024/01/27 04:45:00;;;;;;;24.00;4.65;;;3.00;99.90;;;;;;5055940;28;20237;-75
2024/01/27 04:47:26;;;;;;;20.95;4.32;;;3.00;99.90;;;;;;5032393;28;20743;-76
2024/01/27 04:49:52;;;;;;;23.55;4.22;;;2.90;99.90;;;;;;5046288;28;20166;-76
2024/01/27 04:52:17;;;;;;;16.15;4.47;;;2.90;99.90;;;;;;5043306;28;20043;-76
2024/01/27 04:54:43;;;;;;;22.33;3.65;;;2.90;99.90;;;;;;5044737;28;20456;-76
2024/01/27 04:57:09;;;;;;;23.63;4.45;;;2.90;99.90;;;;;;5060597;28;20032;-76
2024/01/27 04:59:35;;;;;;;21.20;4.10;;;2.90;99.90;;;;;;5064838;28;20561;-76
2024/01/27 05:02:01;;;;;;;17.30;3.92;;;3.00;99.90;;;;;;5058097;28;20048;-76
2024/01/27 05:04:27;;;;;;;18.88;4.32;;;3.00;99.90;;;;;;5043244;28;20064;-76
2024/01/27 05:06:53;;;;;;;17.15;3.83;;;3.10;99.90;;;;;;5059259;28;20488;-76
2024/01/27 05:09:19;;;;;;;21.83;4.15;;;3.10;99.90;;;;;;5060114;28;20064;-76
2024/01/27 05:11:45;;;;;;;24.80;4.50;;;3.20;99.90;;;;;;5058848;28;20040;-76
2024/01/27 05:14:11;;;;;;;20.17;4.07;;;3.20;99.90;;;;;;5043726;28;20036;-76
2024/01/27 05:16:39;;;;;;;21.05;4.07;;;3.00;99.90;;;;;;5042089;28;20068;-76
2024/01/27 05:19:05;;;;;;;21.08;4.70;;;2.90;99.90;;;;;;5044148;28;20046;-76
2024/01/27 05:21:31;;;;;;;16.10;4.00;;;3.00;99.90;;;;;;5058419;28;20032;-76
2024/01/27 05:23:57;;;;;;;23.10;4.53;;;3.00;99.90;;;;;;5043300;28;20126;-76
2024/01/27 05:26:22;;;;;;;19.08;4.57;;;2.90;99.90;;;;;;5058921;28;20111;-77
2024/01/27 05:28:48;;;;;;;20.52;3.97;;;2.80;99.90;;;;;;5060166;28;20174;-76
2024/01/27 05:31:17;;;;;;;17.35;4.32;;;2.80;99.90;;;;;;5042793;28;20325;-76
2024/01/27 05:33:43;;;;;;;15.32;3.72;;;2.80;99.90;;;;;;5041010;28;20102;-76
2024/01/27 05:36:08;;;;;;;26.77;5.00;;;2.80;99.90;;;;;;5059525;28;20119;-76
2024/01/27 05:38:34;;;;;;;22.35;3.97;;;2.70;99.90;;;;;;5058862;28;20146;-76
2024/01/27 05:41:03;;;;;;;24.20;4.80;;;2.80;99.90;;;;;;5060340;28;20036;-76
2024/01/27 05:43:29;;;;;;;18.67;3.92;;;2.80;99.90;;;;;;5042014;28;20040;-76
2024/01/27 05:45:55;;;;;;;18.42;4.15;;;2.80;99.90;;;;;;5033826;28;20543;-76
2024/01/27 05:48:21;;;;;;;13.07;3.58;;;2.90;99.90;;;;;;5034762;28;20454;-76
2024/01/27 05:51:00;;;;;;;22.55;4.60;;;2.90;99.90;;;;;;5058924;28;20036;-76
2024/01/27 05:53:26;;;;;;;17.65;3.65;;;2.90;99.90;;;;;;5059829;28;20480;-76
2024/01/27 05:55:56;;;;;;;22.27;4.28;;;2.80;99.90;;;;;;5059700;28;20043;-76
2024/01/27 05:58:22;;;;;;;28.13;4.60;;;2.70;99.90;;;;;;5041553;28;20037;-76
2024/01/27 06:00:51;;;;;;;20.42;4.10;;;2.80;99.90;;;;;;5039500;28;20097;-76
2024/01/27 06:03:17;;;;;;;27.15;4.35;;;2.90;99.90;;;;;;5059360;28;20032;-76
2024/01/27 06:05:43;;;;;;;17.80;4.53;;;3.00;99.90;;;;;;5058600;28;20385;-76
2024/01/27 06:08:09;;;;;;;24.85;4.72;;;3.00;99.90;;;;;;5057055;28;20044;-76
2024/01/27 06:10:36;;;;;;;20.17;4.65;;;2.90;99.90;;;;;;5055458;28;20036;-76
2024/01/27 06:13:05;;;;;;;21.85;4.43;;;2.90;99.90;;;;;;5042007;28;20048;-76
2024/01/27 06:15:31;;;;;;;27.65;4.97;;;2.80;99.90;;;;;;5042074;28;20041;-76
2024/01/27 06:17:57;;;;;;;23.92;4.68;;;2.80;99.90;;;;;;5058760;28;20067;-76
2024/01/27 06:20:23;;;;;;;26.15;4.63;;;2.90;99.90;;;;;;5043374;28;20072;-76
2024/01/27 06:22:49;;;;;;;23.35;4.65;;;2.80;99.90;;;;;;5056602;28;20741;-76
2024/01/27 06:25:15;;;;;;;16.70;4.25;;;2.90;99.90;;;;;;5057724;28;20387;-76
2024/01/27 06:27:43;;;;;;;20.65;4.72;;;2.90;99.90;;;;;;5058471;28;20043;-76
2024/01/27 06:30:10;;;;;;;20.60;5.47;;;2.90;99.90;;;;;;5058516;28;20044;-76
2024/01/27 06:32:36;;;;;;;23.52;4.95;;;2.90;99.90;;;;;;5039134;28;20070;-75
2024/01/27 06:35:03;;;;;;;23.38;4.38;;;2.80;99.90;;;;;;5057619;28;20105;-76
2024/01/27 06:37:29;;;;;;;25.65;5.07;;;2.80;99.90;;;;;;5055984;28;20102;-76
2024/01/27 06:39:54;;;;;;;23.67;5.20;;;2.90;99.90;;;;;;5041986;28;20037;-76
2024/01/27 06:42:20;;;;;;;22.17;4.40;;;2.90;99.90;;;;;;5039714;28;20059;-76
2024/01/27 06:44:46;;;;;;;25.38;4.88;;;2.90;99.90;;;;;;5059537;28;20392;-76
2024/01/27 06:47:12;;;;;;;23.08;4.40;;;2.90;99.90;;;;;;5040120;28;20717;-75
2024/01/27 06:49:41;;;;;;;26.80;4.60;;;3.00;99.90;;;;;;5058701;28;20049;-76
2024/01/27 06:52:06;;;;;;;16.90;4.70;;;2.90;99.90;;;;;;5044063;28;20147;-76
2024/01/27 06:54:32;;;;;;;27.50;4.72;;;2.90;99.90;;;;;;5042151;28;20136;-76
2024/01/27 06:57:00;;;;;;;26.80;4.43;;;3.00;99.90;;;;;;5060762;28;20506;-76
2024/01/27 06:59:26;;;;;;;25.63;4.65;;;2.90;99.90;;;;;;5057283;28;20287;-76
2024/01/27 07:01:52;;;;;;;18.70;4.28;;;2.80;99.90;;;;;;5040228;28;20040;-76
2024/01/27 07:04:17;;;;;;;25.20;4.68;;;2.90;99.90;;;;;;5041264;28;20415;-76
2024/01/27 07:06:46;;;;;;;17.23;4.53;;;2.80;99.90;;;;;;5061774;28;20032;-75
2024/01/27 07:09:12;;;;;;;20.23;4.40;;;2.80;99.90;;;;;;5078538;28;20093;-76
2024/01/27 07:11:38;;;;;;;29.08;4.80;;;2.80;99.90;;;;;;5064168;28;20049;-76
2024/01/27 07:14:06;;;;;;;21.98;4.63;;;2.80;99.90;;;;;;5060953;28;20411;-75
2024/01/27 07:16:32;;;;;;;22.60;4.97;;;2.80;99.90;;;;;;5061621;28;20112;-76
2024/01/27 07:18:58;;;;;;;19.92;4.93;;;2.80;99.90;;;;;;5044971;28;20123;-76
2024/01/27 07:21:25;;;;;;;34.17;4.60;;;2.70;99.90;;;;;;5063069;28;20127;-76
2024/01/27 07:23:51;;;;;;;25.38;4.60;;;2.80;99.90;;;;;;5045040;28;20834;-75
2024/01/27 07:26:18;;;;;;;21.13;4.72;;;2.70;99.90;;;;;;5044383;28;20182;-75
2024/01/27 07:28:44;;;;;;;20.15;4.82;;;2.70;99.90;;;;;;5050054;28;20045;-75
2024/01/27 07:31:11;;;;;;;20.83;4.78;;;2.60;99.90;;;;;;5058924;28;20432;-75
2024/01/27 07:33:38;;;;;;;26.00;5.15;;;2.60;99.90;;;;;;5057942;28;20057;-75
2024/01/27 07:36:04;;;;;;;28.60;5.38;;;2.50;99.90;;;;;;5063994;28;20378;-75
2024/01/27 07:38:30;;;;;;;19.77;4.93;;;2.50;99.90;;;;;;5061462;28;20550;-75
2024/01/27 07:40:55;;;;;;;31.33;5.28;;;2.60;99.90;;;;;;5048700;28;20458;-75
2024/01/27 07:43:21;;;;;;;28.42;5.40;;;2.50;99.90;;;;;;5059807;28;20365;-75
2024/01/27 07:45:47;;;;;;;33.15;6.22;;;2.50;99.90;;;;;;5045405;28;20040;-76
2024/01/27 07:48:13;;;;;;;25.55;6.25;;;2.60;99.90;;;;;;5026916;28;20562;-75
2024/01/27 07:50:38;;;;;;;30.02;6.00;;;2.60;99.90;;;;;;5039898;28;20564;-75
2024/01/27 07:53:05;;;;;;;30.90;6.18;;;2.60;99.90;;;;;;5058823;28;20542;-76
2024/01/27 07:55:31;;;;;;;26.05;6.45;;;2.60;99.90;;;;;;5061408;28;20047;-75
2024/01/27 07:57:58;;;;;;;23.58;7.00;;;2.70;99.90;;;;;;5060977;28;20040;-75
2024/01/27 08:00:23;;;;;;;23.83;6.43;;;2.70;99.90;;;;;;5043890;28;20076;-76
2024/01/27 08:02:50;;;;;;;23.23;7.28;;;2.70;99.90;;;;;;5043116;28;20055;-75
2024/01/27 08:05:16;;;;;;;26.73;6.35;;;2.80;99.90;;;;;;5046268;28;20037;-75
2024/01/27 08:07:41;;;;;;;31.27;8.32;;;2.80;99.90;;;;;;5042296;28;20090;-75
2024/01/27 08:10:10;;;;;;;31.35;8.02;;;2.90;99.90;;;;;;5044161;28;20584;-75
2024/01/27 08:12:37;;;;;;;26.17;7.93;;;3.00;99.90;;;;;;5057106;28;20048;-76
2024/01/27 08:15:03;;;;;;;27.85;7.38;;;2.90;99.90;;;;;;5061001;28;20515;-76
2024/01/27 08:17:28;;;;;;;25.02;7.50;;;3.00;99.90;;;;;;5058315;28;20032;-75
2024/01/27 08:19:54;;;;;;;27.13;8.23;;;3.10;99.90;;;;;;5062910;28;20111;-75
2024/01/27 08:22:20;;;;;;;27.55;8.38;;;3.00;99.90;;;;;;5042791;28;20102;-75
2024/01/27 08:24:45;;;;;;;28.58;8.75;;;3.20;99.90;;;;;;5042679;28;20424;-75
2024/01/27 08:27:11;;;;;;;25.45;7.80;;;3.20;99.90;;;;;;5043341;28;20127;-76
2024/01/27 08:29:37;;;;;;;24.92;8.15;;;3.30;99.90;;;;;;5059872;28;20498;-75
2024/01/27 08:32:03;;;;;;;28.90;8.60;;;3.20;99.90;;;;;;5041925;28;20051;-76
2024/01/27 08:34:29;;;;;;;23.30;8.55;;;3.40;99.90;;;;;;5042939;28;20558;-75
2024/01/27 08:37:00;;;;;;;25.13;8.40;;;3.40;99.90;;;;;;5058870;28;20537;-76
2024/01/27 08:39:26;;;;;;;29.35;8.43;;;3.40;99.90;;;;;;5042569;28;20413;-75
2024/01/27 08:41:52;;;;;;;24.75;9.77;;;3.40;99.90;;;;;;5059904;28;20434;-76
2024/01/27 08:44:17;;;;;;;29.02;9.15;;;3.50;99.90;;;;;;5059470;28;20044;-75
2024/01/27 08:46:43;;;;;;;27.60;9.10;;;3.50;99.90;;;;;;5058013;28;20033;-75
2024/01/27 08:49:09;;;;;;;26.45;9.35;;;3.50;99.90;;;;;;5043366;28;20368;-75
2024/01/27 08:51:35;;;;;;;25.60;10.18;;;3.60;99.90;;;;;;5043968;28;20041;-75
2024/01/27 08:54:01;;;;;;;24.23;10.55;;;3.60;99.90;;;;;;5045484;28;20029;-75
2024/01/27 08:56:26;;;;;;;28.35;10.05;;;3.60;99.90;;;;;;5059158;28;20047;-75
2024/01/27 08:58:52;;;;;;;30.33;10.65;;;3.60;99.90;;;;;;5060018;28;20047;-75
2024/01/27 09:01:18;;;;;;;32.35;9.88;;;3.60;99.90;;;;;;5060367;28;20127;-75
2024/01/27 09:03:44;;;;;;;25.15;10.43;;;3.80;99.90;;;;;;5041291;28;20040;-76
2024/01/27 09:06:10;;;;;;;26.70;11.10;;;3.80;99.90;;;;;;5061050;28;20043;-75
2024/01/27 09:08:42;;;;;;;24.05;10.98;;;3.80;99.90;;;;;;5059636;28;20048;-75
2024/01/27 09:11:09;;;;;;;29.77;10.88;;;3.80;99.90;;;;;;5044563;28;20040;-75
2024/01/27 09:13:34;;;;;;;30.95;10.43;;;3.90;99.90;;;;;;5055506;28;20036;-75
2024/01/27 09:16:00;;;;;;;34.05;11.65;;;4.00;99.90;;;;;;5059212;28;20462;-76
2024/01/27 09:18:27;;;;;;;34.05;12.05;;;4.00;99.90;;;;;;5057978;28;20043;-75
2024/01/27 09:20:52;;;;;;;29.13;11.13;;;4.10;99.90;;;;;;5043828;28;20484;-75
2024/01/27 09:23:18;;;;;;;26.13;11.20;;;4.10;99.90;;;;;;5041968;28;20052;-75
2024/01/27 09:25:44;;;;;;;22.90;11.00;;;4.20;99.90;;;;;;5060206;28;20071;-75
2024/01/27 09:28:11;;;;;;;27.30;10.60;;;4.30;99.90;;;;;;5042048;28;20090;-76
2024/01/27 09:30:36;;;;;;;24.50;10.85;;;4.30;99.90;;;;;;5056753;28;20480;-75
2024/01/27 09:33:02;;;;;;;25.27;10.35;;;4.30;99.90;;;;;;5041089;28;20315;-76
2024/01/27 09:35:28;;;;;;;25.25;10.38;;;4.40;99.90;;;;;;5059158;28;20384;-76
2024/01/27 09:37:54;;;;;;;34.03;10.55;;;4.50;99.90;;;;;;5058903;28;20396;-76
2024/01/27 09:40:20;;;;;;;34.75;10.43;;;4.50;99.90;;;;;;5059581;28;20050;-76
2024/01/27 09:42:59;;;;;;;23.40;9.85;;;4.60;99.90;;;;;;5041840;28;20048;-76
2024/01/27 09:45:25;;;;;;;22.83;9.75;;;4.70;99.90;;;;;;5043103;28;20440;-76
2024/01/27 09:47:52;;;;;;;23.17;10.43;;;4.70;99.90;;;;;;5040629;28;20428;-76
2024/01/27 09:50:18;;;;;;;24.58;9.88;;;4.80;99.90;;;;;;5023849;28;20099;-76
2024/01/27 09:52:44;;;;;;;23.85;9.90;;;4.90;99.90;;;;;;5059170;28;20376;-76
2024/01/27 09:55:10;;;;;;;29.67;10.68;;;5.00;99.90;;;;;;5058004;28;20039;-76
2024/01/27 09:57:39;;;;;;;21.42;8.88;;;5.10;99.90;;;;;;5042354;28;20052;-76
2024/01/27 10:00:15;;;;;;;29.45;9.57;;;5.10;99.90;;;;;;5058936;28;20036;-76
2024/01/27 10:02:42;;;;;;;18.42;8.55;;;5.30;99.90;;;;;;5054943;28;20045;-76
2024/01/27 10:05:09;;;;;;;18.42;8.57;;;5.40;99.90;;;;;;5043441;28;20059;-76
2024/01/27 10:07:35;;;;;;;26.77;9.10;;;5.40;99.90;;;;;;5058594;28;20137;-76
2024/01/27 10:10:00;;;;;;;23.60;9.13;;;5.50;99.90;;;;;;5056583;28;20082;-76
2024/01/27 10:12:28;;;;;;;24.63;8.60;;;5.50;99.90;;;;;;5044964;28;20217;-76
2024/01/27 10:14:54;;;;;;;22.10;8.07;;;5.70;99.90;;;;;;5059349;28;20419;-76
2024/01/27 10:17:28;;;;;;;20.42;8.45;;;5.80;99.90;;;;;;5039658;28;20033;-76
2024/01/27 10:20:03;;;;;;;28.65;8.55;;;5.80;99.90;;;;;;5057262;28;20036;-76
2024/01/27 10:22:36;;;;;;;21.30;8.40;;;5.90;99.90;;;;;;5040667;28;20047;-76
2024/01/27 10:25:02;;;;;;;19.08;8.43;;;6.00;99.90;;;;;;5039764;28;20087;-76
2024/01/27 10:27:28;;;;;;;22.05;8.02;;;6.10;99.90;;;;;;5041157;28;20079;-76
2024/01/27 10:29:55;;;;;;;25.90;8.10;;;6.20;99.90;;;;;;5058092;28;20032;-76
2024/01/27 10:32:23;;;;;;;23.42;7.55;;;6.20;99.90;;;;;;5035098;28;20046;-76
2024/01/27 10:34:50;;;;;;;23.23;7.68;;;6.30;99.90;;;;;;5055137;28;20037;-76
2024/01/27 10:37:23;;;;;;;23.02;7.72;;;6.50;99.90;;;;;;5054094;28;20047;-76
2024/01/27 10:39:49;;;;;;;22.55;7.25;;;6.50;99.90;;;;;;5057270;28;20661;-76
2024/01/27 10:42:16;;;;;;;22.10;6.85;;;6.60;99.90;;;;;;5043915;28;20613;-76
2024/01/27 10:44:43;;;;;;;26.63;8.20;;;6.80;99.90;;;;;;5045810;28;20084;-77
2024/01/27 10:47:12;;;;;;;27.10;7.53;;;6.80;99.90;;;;;;5051380;28;20033;-76
2024/01/27 10:49:40;;;;;;;17.98;6.97;;;6.90;99.90;;;;;;5031089;28;20656;-76
2024/01/27 10:52:11;;;;;;;22.95;6.80;;;6.90;99.90;;;;;;5033594;28;20432;-76
2024/01/27 10:54:39;;;;;;;24.63;6.53;;;7.00;99.90;;;;;;5056499;28;20045;-76
2024/01/27 10:57:07;;;;;;;20.92;6.70;;;7.00;99.90;;;;;;5058113;28;20059;-76
2024/01/27 10:59:35;;;;;;;22.52;5.95;;;7.00;99.90;;;;;;5059444;28;20032;-76
2024/01/27 11:02:02;;;;;;;18.55;5.80;;;7.10;99.90;;;;;;5039098;28;20105;-76
2024/01/27 11:04:29;;;;;;;18.77;6.28;;;7.10;99.90;;;;;;5058660;28;20036;-76
2024/01/27 11:06:56;;;;;;;25.30;6.30;;;7.10;99.90;;;;;;5040246;28;20048;-76
2024/01/27 11:09:22;;;;;;;21.42;6.13;;;7.10;99.90;;;;;;5056634;28;20515;-76
2024/01/27 11:11:48;;;;;;;18.77;6.78;;;7.10;99.90;;;;;;5039876;28;20356;-76
2024/01/27 11:14:14;;;;;;;24.42;6.22;;;7.20;99.90;;;;;;5055826;28;20052;-76
2024/01/27 11:16:43;;;;;;;21.35;5.93;;;7.30;99.90;;;;;;5039045;28;20441;-76
2024/01/27 11:19:12;;;;;;;22.25;5.35;;;7.30;99.90;;;;;;5057935;28;20032;-76
2024/01/27 11:21:38;;;;;;;20.83;5.78;;;7.40;99.90;;;;;;5056846;28;20136;-76
2024/01/27 11:24:17;;;;;;;22.08;6.68;;;7.40;99.90;;;;;;5039863;28;20039;-77
2024/01/27 11:26:44;;;;;;;16.77;5.47;;;7.50;99.90;;;;;;5045017;28;20127;-76
2024/01/27 11:29:19;;;;;;;21.55;5.55;;;7.50;99.90;;;;;;5057023;28;20040;-76
2024/01/27 11:31:45;;;;;;;16.95;5.15;;;7.60;99.90;;;;;;5055746;28;20324;-76
2024/01/27 11:34:18;;;;;;;20.27;4.70;;;7.50;99.90;;;;;;5041531;28;20290;-76
2024/01/27 11:36:44;;;;;;;16.40;6.10;;;7.60;99.90;;;;;;5040959;28;20047;-76
2024/01/27 11:39:30;;;;;;;18.20;5.20;;;7.60;99.90;;;;;;5042248;28;20043;-76
2024/01/27 11:42:11;;;;;;;18.30;5.20;;;7.70;99.90;;;;;;5056386;28;20040;-76
2024/01/27 11:44:37;;;;;;;20.70;5.18;;;7.70;99.90;;;;;;5039679;28;20076;-76
2024/01/27 11:47:04;;;;;;;12.55;5.22;;;7.70;99.90;;;;;;5038813;28;20500;-76
2024/01/27 11:49:30;;;;;;;18.98;6.38;;;7.70;99.90;;;;;;5055893;28;20420;-76
2024/01/27 11:51:56;;;;;;;15.55;5.45;;;7.80;99.90;;;;;;5019479;28;20070;-76
2024/01/27 11:54:22;;;;;;;23.50;7.47;;;7.80;99.90;;;;;;5063156;28;20052;-76
2024/01/27 11:56:47;;;;;;;21.05;6.22;;;7.90;99.90;;;;;;5060079;28;20122;-76
2024/01/27 11:59:14;;;;;;;16.23;5.10;;;7.90;99.90;;;;;;5061454;28;20028;-76
2024/01/27 12:01:44;;;;;;;17.98;5.43;;;8.00;99.90;;;;;;5059500;28;20055;-76
2024/01/27 12:04:10;;;;;;;21.20;6.03;;;8.10;99.90;;;;;;5059402;28;20075;-76
2024/01/27 12:06:37;;;;;;;17.85;5.30;;;8.10;99.90;;;;;;5042818;28;20040;-76
2024/01/27 12:09:02;;;;;;;18.50;5.85;;;8.10;99.90;;;;;;5061413;28;20278;-77
2024/01/27 12:11:30;;;;;;;18.02;5.47;;;8.20;99.90;;;;;;5061050;28;20040;-77
2024/01/27 12:13:56;;;;;;;17.75;5.35;;;8.20;99.90;;;;;;5059813;28;20102;-77
2024/01/27 12:16:22;;;;;;;19.35;5.70;;;8.20;99.90;;;;;;5059469;28;20041;-77
2024/01/27 12:18:54;;;;;;;13.10;4.85;;;8.30;99.90;;;;;;5047546;28;20142;-76
2024/01/27 12:21:20;;;;;;;16.30;5.03;;;8.40;99.90;;;;;;5039607;28;20484;-76
2024/01/27 12:23:54;;;;;;;19.17;5.55;;;8.30;99.90;;;;;;5059428;28;20293;-76
2024/01/27 12:26:22;;;;;;;15.70;5.30;;;8.30;99.90;;;;;;5042284;28;20053;-76
2024/01/27 12:28:48;;;;;;;15.57;5.03;;;8.40;99.90;;;;;;5059225;28;20052;-76
2024/01/27 12:31:16;;;;;;;16.48;4.70;;;8.40;99.90;;;;;;5057918;28;20052;-76
2024/01/27 12:33:49;;;;;;;18.27;5.38;;;8.40;99.90;;;;;;5058855;28;20138;-76
2024/01/27 12:36:17;;;;;;;13.80;4.85;;;8.50;99.90;;;;;;5059106;28;20367;-76
2024/01/27 12:38:42;;;;;;;14.90;4.97;;;8.50;99.90;;;;;;5043344;28;20051;-76
2024/01/27 12:41:08;;;;;;;18.73;4.82;;;8.50;99.90;;;;;;5042967;28;20466;-76
2024/01/27 12:43:34;;;;;;;20.95;5.05;;;8.40;99.90;;;;;;5057289;28;20460;-76